Airport View

Enter AWOS ICAO identifier for current METAR.

ex. KFNL

KGBG 080335Z AUTO 00000KT 10SM CLR 24/22 A2997 RMK AO2 LTG DSNT N T02430220

8 Jul 2020 03:59

Frequency: 118.975

Phone: 309-343-3711

Other Area AWOS: KMQB - KMLI - KBRL - KPIA

TAF AMD KMLI 080052Z 0801/0824 23005KT P6SM BKN150 FM080130 36013G19KT P6SM BKN050 FM080200 VRB03KT P6SM FEW050